Time;durP1;ratioP1;P1;durP2;ratioP2;P2;SDS_P1;SDS_P2;PMS_P1;PMS_P2;Temp;Humidity;BMP_temperature;BMP_pressure;BME280_temperature;BME280_humidity;BME280_pressure;Samples;Min_cycle;Max_cycle;Signal;HPM_P1;HPM_P2
2023/06/29 00:01:10;;;;;;;33.83;17.90;;;;;;;18.13;100.00;101588.69;5062790;28;22178;-75
2023/06/29 00:03:56;;;;;;;26.13;16.20;;;;;;;18.13;100.00;101582.47;5049227;28;20040;-75
2023/06/29 00:06:43;;;;;;;33.25;16.70;;;;;;;18.14;100.00;101581.53;5064732;28;20048;-75
2023/06/29 00:09:29;;;;;;;32.80;16.85;;;;;;;18.14;100.00;101578.84;5065681;28;20036;-75
2023/06/29 00:12:15;;;;;;;33.85;17.90;;;;;;;18.14;100.00;101576.16;5064251;28;20109;-76
2023/06/29 00:15:03;;;;;;;32.25;17.20;;;;;;;18.13;100.00;101586.00;5067099;28;20055;-76
2023/06/29 00:17:49;;;;;;;31.20;16.75;;;;;;;18.14;100.00;101576.16;5070218;28;20050;-75
2023/06/29 00:20:35;;;;;;;34.72;17.27;;;;;;;18.12;100.00;101578.94;5066291;28;20147;-75
2023/06/29 00:23:21;;;;;;;31.50;17.40;;;;;;;18.11;100.00;101577.22;5066394;28;20115;-76
2023/06/29 00:26:07;;;;;;;32.33;17.30;;;;;;;18.11;100.00;101576.34;5062043;28;20090;-76
2023/06/29 00:28:53;;;;;;;29.77;17.20;;;;;;;18.10;100.00;101574.63;5061000;28;20055;-75
2023/06/29 00:31:38;;;;;;;29.60;16.88;;;;;;;18.10;100.00;101572.84;5050648;28;20036;-75
2023/06/29 00:34:24;;;;;;;32.95;17.65;;;;;;;18.09;100.00;101573.75;5054633;28;20039;-75
2023/06/29 00:37:10;;;;;;;35.22;17.90;;;;;;;18.09;100.00;101562.19;5068626;28;20106;-75
2023/06/29 00:39:55;;;;;;;34.35;18.23;;;;;;;18.07;100.00;101569.50;5038106;28;20105;-75
2023/06/29 00:42:41;;;;;;;35.08;19.17;;;;;;;18.07;100.00;101561.47;5068543;28;20043;-75
2023/06/29 00:45:30;;;;;;;32.70;18.15;;;;;;;18.07;100.00;101564.13;5068855;28;20052;-75
2023/06/29 00:48:16;;;;;;;38.05;19.67;;;;;;;18.06;100.00;101557.91;5052054;28;20822;-76
2023/06/29 00:51:03;;;;;;;34.30;18.42;;;;;;;18.07;100.00;101556.94;5070318;28;20862;-76
2023/06/29 00:53:49;;;;;;;37.67;19.30;;;;;;;18.06;100.00;101557.91;5069835;28;20044;-77
2023/06/29 00:56:37;;;;;;;41.28;21.13;;;;;;;18.05;100.00;101551.69;5069281;28;20036;-75
2023/06/29 00:59:23;;;;;;;37.15;20.88;;;;;;;18.07;100.00;101548.91;5068217;28;20044;-75
2023/06/29 01:02:09;;;;;;;40.95;20.98;;;;;;;18.07;100.00;101542.69;5069743;28;20128;-75
2023/06/29 01:04:55;;;;;;;41.55;21.00;;;;;;;18.09;100.00;101546.13;5063749;28;20101;-75
2023/06/29 01:07:43;;;;;;;40.85;19.92;;;;;;;18.09;100.00;101532.72;5063531;28;20050;-75
2023/06/29 01:10:31;;;;;;;38.83;21.20;;;;;;;18.08;100.00;101523.81;5049902;28;20054;-75
2023/06/29 01:13:17;;;;;;;37.28;19.88;;;;;;;18.07;100.00;101530.16;5049122;28;20032;-76
2023/06/29 01:16:03;;;;;;;40.38;21.60;;;;;;;18.09;100.00;101524.69;5035926;28;20063;-76
2023/06/29 01:18:51;;;;;;;39.42;20.25;;;;;;;18.08;100.00;101523.81;5035477;28;20052;-75
2023/06/29 01:21:43;;;;;;;41.75;21.02;;;;;;;18.09;100.00;101524.69;5047436;28;20039;-75
2023/06/29 01:24:37;;;;;;;43.33;22.27;;;;;;;18.07;100.00;101522.09;5050666;28;20043;-75
2023/06/29 01:27:23;;;;;;;40.65;22.48;;;;;;;18.05;100.00;101519.53;5064656;28;20043;-75
2023/06/29 01:30:11;;;;;;;43.15;21.73;;;;;;;18.06;100.00;101520.41;5064935;28;20445;-75
2023/06/29 01:33:00;;;;;;;38.97;21.17;;;;;;;18.05;100.00;101518.69;5066053;28;20040;-75
2023/06/29 01:35:46;;;;;;;41.78;21.05;;;;;;;18.05;100.00;101510.66;5068089;28;20655;-75
2023/06/29 01:38:50;;;;;;;38.38;21.77;;;;;;;18.04;100.00;101504.38;5070108;28;20135;-75
2023/06/29 01:41:40;;;;;;;40.53;21.42;;;;;;;18.05;100.00;101502.63;5054425;28;20702;-75
2023/06/29 01:44:25;;;;;;;38.78;21.85;;;;;;;18.04;100.00;101501.72;5038362;28;20071;-75
2023/06/29 01:47:13;;;;;;;43.20;21.45;;;;;;;18.04;100.00;101501.72;5069665;28;20036;-76
2023/06/29 01:49:59;;;;;;;43.15;21.08;;;;;;;18.02;100.00;101503.63;5041091;28;20736;-76
2023/06/29 01:52:45;;;;;;;41.08;20.38;;;;;;;18.03;100.00;101502.69;5053103;28;20764;-76
2023/06/29 01:55:31;;;;;;;41.42;21.10;;;;;;;18.03;100.00;101502.69;5043421;28;20032;-76
2023/06/29 01:58:16;;;;;;;37.40;20.33;;;;;;;18.01;100.00;101496.56;5072312;28;20494;-75
2023/06/29 02:01:02;;;;;;;36.35;20.70;;;;;;;18.00;100.00;101497.53;5057559;28;20035;-75
2023/06/29 02:03:48;;;;;;;37.13;19.90;;;;;;;18.01;100.00;101490.34;5054160;28;20561;-75
2023/06/29 02:06:34;;;;;;;35.17;19.60;;;;;;;18.00;100.00;101497.53;5068214;28;20100;-76
2023/06/29 02:09:22;;;;;;;38.28;21.08;;;;;;;18.00;100.00;101492.19;5066841;28;20052;-76
2023/06/29 02:12:08;;;;;;;36.47;20.05;;;;;;;18.00;100.00;101492.19;5039308;28;20059;-76
2023/06/29 02:14:54;;;;;;;40.38;21.00;;;;;;;17.99;100.00;101493.16;5051581;28;20035;-75
2023/06/29 02:17:40;;;;;;;36.90;20.35;;;;;;;17.97;100.00;101487.00;5066652;28;20067;-76
2023/06/29 02:20:26;;;;;;;42.60;20.45;;;;;;;17.97;100.00;101481.66;5052631;28;20667;-76
2023/06/29 02:23:12;;;;;;;37.75;20.75;;;;;;;17.97;100.00;101478.97;5051214;28;20063;-75
2023/06/29 02:25:57;;;;;;;41.65;20.88;;;;;;;17.96;100.00;101479.06;5067591;28;20054;-75
2023/06/29 02:28:43;;;;;;;40.25;20.75;;;;;;;17.97;100.00;101484.34;5067701;28;20040;-75
2023/06/29 02:31:29;;;;;;;39.70;19.73;;;;;;;17.96;100.00;101477.25;5068046;28;20032;-76
2023/06/29 02:34:15;;;;;;;36.50;18.63;;;;;;;17.96;100.00;101474.59;5072522;28;20035;-75
2023/06/29 02:37:01;;;;;;;40.45;18.80;;;;;;;17.97;100.00;101478.97;5072013;28;20123;-75
2023/06/29 02:39:47;;;;;;;35.42;18.40;;;;;;;17.96;100.00;101471.91;5072786;28;20915;-76
2023/06/29 02:42:32;;;;;;;35.67;18.75;;;;;;;18.00;100.00;101475.22;5040042;28;20074;-75
2023/06/29 02:45:21;;;;;;;38.05;19.23;;;;;;;18.00;100.00;101475.22;5071562;28;20063;-75
2023/06/29 02:48:06;;;;;;;33.47;17.20;;;;;;;17.99;100.00;101477.06;5072690;28;20505;-75
2023/06/29 02:50:52;;;;;;;33.53;18.38;;;;;;;17.99;100.00;101468.16;5073296;28;20067;-75
2023/06/29 02:53:38;;;;;;;32.03;17.13;;;;;;;17.99;100.00;101466.34;5071024;28;20067;-75
2023/06/29 02:56:24;;;;;;;35.53;18.42;;;;;;;17.99;100.00;101463.69;5069500;28;20047;-75
2023/06/29 02:59:09;;;;;;;35.20;17.75;;;;;;;17.99;100.00;101458.31;5057743;28;21898;-75
2023/06/29 03:01:55;;;;;;;32.50;17.45;;;;;;;18.01;100.00;101463.56;5054406;28;20043;-75
2023/06/29 03:04:42;;;;;;;34.95;17.25;;;;;;;18.00;100.00;101456.47;5067497;28;20044;-75
2023/06/29 03:07:27;;;;;;;33.75;17.98;;;;;;;17.99;100.00;101458.31;5050126;28;20074;-75
2023/06/29 03:10:13;;;;;;;38.45;18.33;;;;;;;17.98;100.00;101456.56;5067194;28;20242;-75
2023/06/29 03:12:59;;;;;;;31.13;17.60;;;;;;;17.98;100.00;101455.75;5053596;28;20398;-75
2023/06/29 03:15:44;;;;;;;35.15;17.73;;;;;;;17.97;100.00;101457.53;5066506;28;20410;-76
2023/06/29 03:18:30;;;;;;;34.65;18.00;;;;;;;17.97;100.00;101446.84;5064949;28;20406;-75
2023/06/29 03:21:18;;;;;;;34.45;17.55;;;;;;;17.97;100.00;101457.53;5038996;28;20074;-75
2023/06/29 03:24:04;;;;;;;30.63;15.88;;;;;;;17.98;100.00;101463.78;5061964;28;20143;-76
2023/06/29 03:26:50;;;;;;;32.47;16.40;;;;;;;17.97;100.00;101462.91;5065893;28;20115;-75
2023/06/29 03:29:35;;;;;;;34.63;17.65;;;;;;;17.98;100.00;101459.25;5067329;28;20024;-74
2023/06/29 03:32:21;;;;;;;31.10;17.17;;;;;;;17.99;100.00;101457.44;5064957;28;20028;-75
2023/06/29 03:35:07;;;;;;;31.45;16.52;;;;;;;17.99;100.00;101461.00;5055765;28;20078;-75
2023/06/29 03:37:53;;;;;;;35.70;17.70;;;;;;;17.99;100.00;101457.44;5067794;28;20596;-75
2023/06/29 03:40:38;;;;;;;31.15;17.50;;;;;;;18.00;100.00;101457.34;5052727;28;20402;-75
2023/06/29 03:43:24;;;;;;;34.80;17.25;;;;;;;18.00;100.00;101452.00;5064004;28;20189;-75
2023/06/29 03:46:10;;;;;;;30.85;17.67;;;;;;;18.00;100.00;101446.63;5060142;28;20064;-75
2023/06/29 03:48:56;;;;;;;34.03;18.55;;;;;;;18.02;100.00;101443.84;5061663;28;20063;-75
2023/06/29 03:51:41;;;;;;;33.75;17.75;;;;;;;18.04;100.00;101452.66;5051318;28;20044;-75
2023/06/29 03:54:30;;;;;;;31.20;17.50;;;;;;;18.04;100.00;101453.50;5065114;28;20047;-75
2023/06/29 03:57:16;;;;;;;35.25;17.75;;;;;;;18.07;100.00;101448.94;5048537;28;20032;-75
2023/06/29 04:00:03;;;;;;;33.75;17.80;;;;;;;18.08;100.00;101448.81;5067540;28;20039;-75
2023/06/29 04:02:49;;;;;;;31.80;17.15;;;;;;;18.10;100.00;101451.41;5052632;28;20127;-75
2023/06/29 04:05:34;;;;;;;33.13;17.27;;;;;;;18.11;100.00;101455.78;5065133;28;20184;-75
2023/06/29 04:08:20;;;;;;;33.10;16.17;;;;;;;18.10;100.00;101438.88;5046886;28;20032;-75
2023/06/29 04:11:06;;;;;;;29.63;16.50;;;;;;;18.13;100.00;101448.50;5049692;28;20028;-75
2023/06/29 04:13:52;;;;;;;30.60;16.75;;;;;;;18.14;100.00;101439.53;5065118;28;20040;-75
2023/06/29 04:16:37;;;;;;;32.28;15.23;;;;;;;18.14;100.00;101443.03;5065365;28;20044;-75
2023/06/29 04:19:23;;;;;;;27.48;15.60;;;;;;;18.15;100.00;101438.56;5046941;28;20059;-75
2023/06/29 04:22:09;;;;;;;32.22;16.02;;;;;;;18.17;100.00;101434.81;5065868;28;20040;-75
2023/06/29 04:24:55;;;;;;;29.45;15.07;;;;;;;18.18;100.00;101425.81;5048002;28;20782;-75
2023/06/29 04:27:43;;;;;;;28.05;15.10;;;;;;;18.20;100.00;101425.72;5061309;28;20040;-75
2023/06/29 04:30:29;;;;;;;28.10;14.88;;;;;;;18.21;100.00;101423.88;5066233;28;20040;-75
2023/06/29 04:33:15;;;;;;;30.98;15.50;;;;;;;18.19;100.00;101424.84;5066503;28;20502;-75
2023/06/29 04:36:01;;;;;;;29.33;14.68;;;;;;;18.17;100.00;101417.84;5051942;28;20055;-74
2023/06/29 04:38:47;;;;;;;30.90;14.68;;;;;;;18.17;100.00;101421.41;5037621;28;20040;-75
2023/06/29 04:41:33;;;;;;;29.00;14.38;;;;;;;18.17;100.00;101425.91;5048285;28;20576;-75
2023/06/29 04:44:21;;;;;;;28.70;14.82;;;;;;;18.15;100.00;101422.47;5042147;28;20111;-74
2023/06/29 04:47:07;;;;;;;26.88;15.32;;;;;;;18.15;100.00;101422.47;5063197;28;20048;-75
2023/06/29 04:49:56;;;;;;;28.88;15.40;;;;;;;18.14;100.00;101420.75;5050085;28;20122;-75
2023/06/29 04:52:43;;;;;;;29.48;15.85;;;;;;;18.15;100.00;101411.75;5065063;28;20055;-75
2023/06/29 04:55:29;;;;;;;29.45;15.20;;;;;;;18.15;100.00;101417.13;5062641;28;20051;-75
2023/06/29 04:58:15;;;;;;;28.75;15.52;;;;;;;18.13;100.00;101411.84;5051455;28;20109;-75
2023/06/29 05:01:00;;;;;;;27.02;14.45;;;;;;;18.13;100.00;101413.66;5066865;28;20498;-75
2023/06/29 05:03:46;;;;;;;26.77;15.35;;;;;;;18.11;100.00;101415.59;5067981;28;20071;-74
2023/06/29 05:06:32;;;;;;;28.77;15.93;;;;;;;18.10;100.00;101408.53;5066182;28;20052;-75
2023/06/29 05:09:17;;;;;;;30.13;15.43;;;;;;;18.09;100.00;101415.69;5067889;28;20200;-75
2023/06/29 05:12:04;;;;;;;31.13;14.90;;;;;;;18.05;100.00;101409.69;5052837;28;20032;-75
2023/06/29 05:14:52;;;;;;;27.23;14.40;;;;;;;18.07;100.00;101414.09;5067840;28;20568;-76
2023/06/29 05:17:38;;;;;;;30.48;15.48;;;;;;;18.06;100.00;101413.25;5068200;28;20050;-75
2023/06/29 05:20:24;;;;;;;30.60;15.52;;;;;;;18.05;100.00;101412.38;5068299;28;20124;-74
2023/06/29 05:23:11;;;;;;;26.77;14.85;;;;;;;18.04;100.00;101405.25;5066734;28;20040;-75
2023/06/29 05:25:56;;;;;;;30.27;15.85;;;;;;;18.02;100.00;101401.84;5066536;28;20040;-76
2023/06/29 05:28:42;;;;;;;28.45;15.23;;;;;;;18.01;100.00;101407.28;5066238;28;20038;-74
2023/06/29 05:31:28;;;;;;;26.95;14.30;;;;;;;17.99;100.00;101394.03;5068196;28;21945;-75
2023/06/29 05:34:14;;;;;;;26.70;14.73;;;;;;;17.98;100.00;101394.97;5067073;28;20038;-75
2023/06/29 05:37:00;;;;;;;28.60;14.07;;;;;;;17.98;100.00;101389.63;5052497;28;20028;-75
2023/06/29 05:39:46;;;;;;;27.63;14.50;;;;;;;17.99;100.00;101393.16;5066847;28;20158;-75
2023/06/29 05:42:34;;;;;;;30.45;14.30;;;;;;;18.01;100.00;101383.19;5065401;28;20402;-75
2023/06/29 05:45:19;;;;;;;30.70;14.75;;;;;;;18.02;100.00;101390.25;5047708;28;20086;-75
2023/06/29 05:48:05;;;;;;;27.55;14.57;;;;;;;18.05;100.00;101390.09;5047221;28;20043;-75
2023/06/29 05:50:51;;;;;;;26.67;14.32;;;;;;;18.09;100.00;101396.09;5047047;28;20520;-75
2023/06/29 05:53:37;;;;;;;28.70;14.75;;;;;;;18.11;100.00;101397.72;5046085;28;20060;-75
2023/06/29 05:56:23;;;;;;;30.17;15.00;;;;;;;18.14;100.00;101399.34;5046400;28;20044;-75
2023/06/29 05:59:09;;;;;;;29.27;15.90;;;;;;;18.17;100.00;101394.63;5047033;28;20033;-75
2023/06/29 06:01:54;;;;;;;29.50;15.10;;;;;;;18.18;100.00;101390.09;5043988;28;20043;-75
2023/06/29 06:04:40;;;;;;;31.90;16.13;;;;;;;18.20;100.00;101388.19;5044888;28;20078;-76
2023/06/29 06:07:28;;;;;;;28.25;15.57;;;;;;;18.19;100.00;101392.69;5044620;28;20040;-75
2023/06/29 06:10:14;;;;;;;32.83;15.38;;;;;;;18.21;100.00;101379.19;5029234;28;20032;-75
2023/06/29 06:12:59;;;;;;;31.02;14.85;;;;;;;18.23;100.00;101382.59;5047357;28;21098;-75
2023/06/29 06:15:45;;;;;;;30.00;15.75;;;;;;;18.23;100.00;101382.59;5045221;28;21883;-75
2023/06/29 06:18:31;;;;;;;29.15;15.27;;;;;;;18.26;100.00;101382.38;5045215;28;20032;-75
2023/06/29 06:21:17;;;;;;;31.48;14.88;;;;;;;18.29;100.00;101381.31;5041218;28;20048;-76
2023/06/29 06:24:03;;;;;;;32.25;14.93;;;;;;;18.32;100.00;101381.94;5037907;28;20051;-75
2023/06/29 06:26:48;;;;;;;31.15;14.75;;;;;;;18.37;100.00;101373.63;5044035;28;20082;-75
2023/06/29 06:29:34;;;;;;;34.22;15.43;;;;;;;18.40;100.00;101378.75;5047771;28;20028;-75
2023/06/29 06:32:24;;;;;;;30.80;15.20;;;;;;;18.45;100.00;101370.38;5047596;28;20563;-75
2023/06/29 06:35:10;;;;;;;30.13;16.15;;;;;;;18.50;100.00;101367.34;5045093;28;21389;-75
2023/06/29 06:37:55;;;;;;;30.08;15.40;;;;;;;18.54;100.00;101369.75;5039986;28;20066;-75
2023/06/29 06:40:41;;;;;;;31.67;16.20;;;;;;;18.58;100.00;101376.56;5043889;28;20040;-75
2023/06/29 06:43:29;;;;;;;28.42;16.30;;;;;;;18.63;100.00;101370.88;5044789;28;20074;-75
2023/06/29 06:46:15;;;;;;;31.65;15.40;;;;;;;18.66;100.00;101372.50;5015450;28;20071;-75
2023/06/29 06:49:01;;;;;;;31.98;15.93;;;;;;;18.70;100.00;101374.84;5028355;28;20045;-75
2023/06/29 06:51:47;;;;;;;30.27;16.40;;;;;;;18.73;100.00;101368.41;5029557;28;20124;-76
2023/06/29 06:54:32;;;;;;;31.33;15.55;;;;;;;18.79;100.00;101370.63;5031154;28;22061;-75
2023/06/29 06:57:18;;;;;;;27.92;15.30;;;;;;;18.82;100.00;101370.44;5032403;28;20507;-75
2023/06/29 07:00:05;;;;;;;32.45;16.60;;;;;;;18.89;100.00;101362.78;5026523;28;20044;-75
2023/06/29 07:02:51;;;;;;;34.20;16.75;;;;;;;18.95;100.00;101369.53;5028692;28;20033;-75
2023/06/29 07:05:37;;;;;;;33.10;16.23;;;;;;;18.98;100.00;101367.50;5027302;28;20043;-75
2023/06/29 07:08:22;;;;;;;34.35;17.05;;;;;;;19.02;100.00;101357.44;5028418;28;20567;-75
2023/06/29 07:11:08;;;;;;;31.92;16.60;;;;;;;19.06;100.00;101350.84;5028865;28;20048;-75
2023/06/29 07:13:54;;;;;;;33.15;16.88;;;;;;;19.14;100.00;101352.97;5032183;28;20641;-76
2023/06/29 07:16:40;;;;;;;32.17;17.15;;;;;;;19.21;100.00;101345.31;5029754;28;20036;-76
2023/06/29 07:19:26;;;;;;;34.40;16.45;;;;;;;19.32;100.00;101353.44;5028301;28;20108;-76
2023/06/29 07:22:12;;;;;;;35.70;17.52;;;;;;;19.43;100.00;101359.84;5029807;28;20107;-76
2023/06/29 07:24:58;;;;;;;32.90;16.65;;;;;;;19.54;100.00;101352.69;5014091;28;20045;-75
2023/06/29 07:27:45;;;;;;;34.00;16.40;;;;;;;19.66;100.00;101348.19;5028407;28;20036;-74
2023/06/29 07:30:30;;;;;;;33.88;16.95;;;;;;;19.78;100.00;101350.94;5029494;28;20668;-76
2023/06/29 07:33:16;;;;;;;34.17;17.00;;;;;;;19.87;100.00;101349.38;5029505;28;20029;-75
2023/06/29 07:36:02;;;;;;;32.90;17.02;;;;;;;19.97;100.00;101349.50;5028346;28;20045;-76
2023/06/29 07:38:48;;;;;;;31.45;17.73;;;;;;;20.09;100.00;101345.88;5027034;28;20553;-76
2023/06/29 07:41:34;;;;;;;31.95;16.77;;;;;;;20.19;100.00;101348.69;5029501;28;20044;-75
2023/06/29 07:44:20;;;;;;;32.03;17.02;;;;;;;20.24;100.00;101337.56;5041719;28;20072;-74
2023/06/29 07:47:06;;;;;;;34.25;17.73;;;;;;;20.28;100.00;101337.25;5069012;28;20046;-75
2023/06/29 07:49:52;;;;;;;29.48;16.88;;;;;;;20.28;100.00;101339.06;5052226;28;20100;-74
2023/06/29 07:52:37;;;;;;;31.67;16.42;;;;;;;20.24;100.00;101337.56;5069159;28;20044;-74
2023/06/29 07:55:23;;;;;;;30.92;17.20;;;;;;;20.19;100.00;101335.25;5052620;28;20137;-74
2023/06/29 07:58:09;;;;;;;34.47;17.90;;;;;;;20.12;100.00;101345.66;5069739;28;20043;-75
2023/06/29 08:00:55;;;;;;;32.83;18.15;;;;;;;20.04;100.00;101337.34;5070384;28;20048;-76
2023/06/29 08:03:41;;;;;;;32.47;16.95;;;;;;;19.97;100.00;101334.25;5070822;28;20047;-75
2023/06/29 08:06:31;;;;;;;36.60;18.77;;;;;;;19.91;100.00;101327.50;5070156;28;20692;-75
2023/06/29 08:09:17;;;;;;;32.85;17.75;;;;;;;19.89;100.00;101328.59;5055298;28;21989;-76
2023/06/29 08:12:03;;;;;;;31.63;17.63;;;;;;;19.86;100.00;101328.81;5067598;28;20113;-75
2023/06/29 08:14:49;;;;;;;30.38;17.40;;;;;;;19.82;100.00;101328.19;5042291;28;20044;-75
2023/06/29 08:17:35;;;;;;;31.42;17.80;;;;;;;19.80;100.00;101327.47;5067123;28;20391;-75
2023/06/29 08:20:22;;;;;;;32.78;18.55;;;;;;;19.77;100.00;101331.25;5071103;28;20036;-75
2023/06/29 08:23:08;;;;;;;32.85;17.70;;;;;;;19.73;100.00;101323.56;5068071;28;20040;-75
2023/06/29 08:25:54;;;;;;;30.83;17.23;;;;;;;19.67;100.00;101325.72;5049738;28;20042;-75
2023/06/29 08:28:39;;;;;;;31.35;17.92;;;;;;;19.66;100.00;101328.53;5055952;28;20044;-76
2023/06/29 08:31:28;;;;;;;30.75;16.95;;;;;;;19.63;100.00;101329.66;5065552;28;20047;-76
2023/06/29 08:34:14;;;;;;;33.80;17.85;;;;;;;19.62;100.00;101332.44;5063123;28;20100;-76
2023/06/29 08:36:59;;;;;;;33.55;18.33;;;;;;;19.60;100.00;101329.84;5064698;28;20130;-76
2023/06/29 08:39:45;;;;;;;33.38;18.65;;;;;;;19.61;100.00;101323.50;5066841;28;20433;-75
2023/06/29 08:42:31;;;;;;;33.53;18.08;;;;;;;19.61;100.00;101320.81;5064195;28;20068;-76
2023/06/29 08:45:17;;;;;;;31.85;18.10;;;;;;;19.61;100.00;101320.81;5034614;28;20946;-75
2023/06/29 08:48:03;;;;;;;36.83;18.63;;;;;;;19.59;100.00;101327.28;5031445;28;20143;-76
2023/06/29 08:50:54;;;;;;;34.97;17.70;;;;;;;19.56;100.00;101332.91;5037941;28;20479;-75
2023/06/29 08:53:41;;;;;;;36.28;20.15;;;;;;;19.49;100.00;101337.88;5048098;28;20143;-73
2023/06/29 08:56:30;;;;;;;35.85;19.08;;;;;;;19.36;100.00;101322.72;5047670;28;20036;-76
2023/06/29 08:59:16;;;;;;;37.67;19.23;;;;;;;19.25;100.00;101325.34;5063796;28;20513;-76
2023/06/29 09:02:04;;;;;;;35.40;18.83;;;;;;;19.13;100.00;101329.81;5050676;28;20410;-76
2023/06/29 09:04:50;;;;;;;33.20;19.52;;;;;;;19.03;100.00;101332.31;5035182;28;20040;-76
2023/06/29 09:07:37;;;;;;;36.17;18.98;;;;;;;18.98;100.00;101323.69;5055068;28;20566;-77
2023/06/29 09:10:22;;;;;;;37.90;20.38;;;;;;;18.92;100.00;101327.69;5069873;28;20040;-77
2023/06/29 09:13:09;;;;;;;33.60;18.63;;;;;;;18.89;100.00;101317.19;5068927;28;20039;-76
2023/06/29 09:15:55;;;;;;;41.85;20.70;;;;;;;18.86;100.00;101315.56;5067819;28;20616;-77
2023/06/29 09:18:42;;;;;;;40.85;21.13;;;;;;;18.86;100.00;101310.22;5069979;28;20730;-76
2023/06/29 09:21:31;;;;;;;42.90;20.77;;;;;;;18.87;100.00;101317.28;5069540;28;20079;-77
2023/06/29 09:24:18;;;;;;;40.80;20.58;;;;;;;18.91;100.00;101309.03;5052323;28;20096;-77
2023/06/29 09:27:04;;;;;;;44.17;21.58;;;;;;;18.98;100.00;101313.84;5069473;28;20123;-76
2023/06/29 09:29:51;;;;;;;42.10;21.48;;;;;;;19.04;100.00;101317.03;5067328;28;20047;-77
2023/06/29 09:32:38;;;;;;;48.60;23.77;;;;;;;19.12;100.00;101314.69;5048372;28;20039;-76
2023/06/29 09:35:24;;;;;;;46.28;22.17;;;;;;;19.19;100.00;101312.38;5068830;28;20086;-76
2023/06/29 09:38:09;;;;;;;49.35;22.42;;;;;;;19.27;100.00;101315.34;5068461;28;20120;-77
2023/06/29 09:40:55;;;;;;;41.35;21.48;;;;;;;19.37;100.00;101316.38;5068461;28;20048;-76
2023/06/29 09:43:41;;;;;;;41.95;21.80;;;;;;;19.47;100.00;101307.59;5067037;28;20028;-77
2023/06/29 09:46:28;;;;;;;46.22;21.75;;;;;;;19.53;100.00;101301.78;5049904;28;20064;-76
2023/06/29 09:49:14;;;;;;;38.20;21.05;;;;;;;19.58;100.00;101302.28;5068378;28;20687;-76
2023/06/29 09:52:04;;;;;;;40.40;21.98;;;;;;;19.63;100.00;101308.16;5049537;28;20036;-77
2023/06/29 09:54:50;;;;;;;38.25;21.08;;;;;;;19.67;100.00;101304.25;5044601;28;20066;-77
2023/06/29 09:57:36;;;;;;;42.67;21.02;;;;;;;19.71;100.00;101310.22;5064745;28;20526;-76
2023/06/29 10:00:22;;;;;;;42.28;21.52;;;;;;;19.76;100.00;101309.88;5047671;28;20036;-77
2023/06/29 10:03:08;;;;;;;40.03;22.30;;;;;;;19.81;100.00;101310.38;5068324;28;20050;-77
2023/06/29 10:05:59;;;;;;;40.20;21.80;;;;;;;19.84;100.00;101310.16;5066046;28;20048;-76
2023/06/29 10:08:50;;;;;;;40.47;21.63;;;;;;;19.90;100.00;101309.69;5053772;28;20092;-76
2023/06/29 10:11:37;;;;;;;40.17;22.13;;;;;;;19.94;100.00;101311.13;5067934;28;20047;-75
2023/06/29 10:14:22;;;;;;;37.55;21.35;;;;;;;19.95;100.00;101312.88;5070194;28;20036;-75
2023/06/29 10:17:16;;;;;;;39.42;21.35;;;;;;;19.97;100.00;101311.91;5054800;28;20035;-75
2023/06/29 10:20:35;;;;;;;40.55;22.25;;;;;;;19.98;100.00;101302.88;5057118;28;20035;-77
2023/06/29 10:23:22;;;;;;;38.80;21.63;;;;;;;20.00;100.00;101300.91;5059800;28;20388;-73
2023/06/29 10:26:09;;;;;;;37.83;20.85;;;;;;;20.08;100.00;101304.72;5074748;28;20020;-73
2023/06/29 10:28:55;;;;;;;40.25;21.95;;;;;;;20.18;100.00;101295.91;5044431;28;20165;-73
2023/06/29 10:31:48;;;;;;;46.80;23.23;;;;;;;20.24;100.00;101294.56;5075278;28;20170;-72
2023/06/29 10:34:49;;;;;;;45.05;22.80;;;;;;;20.30;100.00;101299.47;5055998;28;20487;-73
2023/06/29 10:37:36;;;;;;;41.92;22.20;;;;;;;20.42;100.00;101300.31;5056599;28;20505;-74
2023/06/29 10:40:26;;;;;;;41.35;24.33;;;;;;;20.55;100.00;101300.19;5057625;28;20964;-73
2023/06/29 10:43:11;;;;;;;43.85;23.23;;;;;;;20.58;100.00;101291.84;5061534;28;20548;-74
2023/06/29 10:45:59;;;;;;;41.00;23.52;;;;;;;20.57;100.00;101290.16;5070892;28;20205;-75
2023/06/29 10:48:59;;;;;;;44.58;22.33;;;;;;;20.56;100.00;101292.00;5055148;28;20061;-74
2023/06/29 10:51:56;;;;;;;40.42;21.95;;;;;;;20.55;100.00;101292.97;5072707;28;20044;-73
2023/06/29 10:54:41;;;;;;;37.70;19.90;;;;;;;20.60;100.00;101284.53;5058118;28;20051;-73
2023/06/29 10:57:30;;;;;;;38.95;21.33;;;;;;;20.62;100.00;101296.00;5073564;28;21970;-73
2023/06/29 11:00:16;;;;;;;41.55;22.70;;;;;;;20.67;100.00;101292.94;5056310;28;20389;-73
2023/06/29 11:03:02;;;;;;;38.45;21.02;;;;;;;20.77;100.00;101297.44;5071471;28;20040;-73
2023/06/29 11:05:50;;;;;;;36.95;19.90;;;;;;;20.91;100.00;101286.56;5056932;28;20044;-74
2023/06/29 11:08:36;;;;;;;39.05;20.55;;;;;;;21.12;100.00;101278.53;5042674;28;20419;-75
2023/06/29 11:11:22;;;;;;;39.33;20.05;;;;;;;21.29;100.00;101277.97;5072226;28;20316;-75
2023/06/29 11:14:10;;;;;;;35.72;19.52;;;;;;;21.41;100.00;101277.94;5056463;28;20028;-74
2023/06/29 11:16:56;;;;;;;35.72;19.60;;;;;;;21.58;100.00;101280.03;5072684;28;20035;-75
2023/06/29 11:19:44;;;;;;;34.80;19.40;;;;;;;21.78;100.00;101269.41;5072191;28;20062;-76
2023/06/29 11:22:30;;;;;;;32.08;18.00;;;;;;;21.90;100.00;101274.72;5071516;28;20176;-75
2023/06/29 11:25:19;;;;;;;28.50;16.95;;;;;;;22.10;100.00;101273.81;5054038;28;20041;-74
2023/06/29 11:28:04;;;;;;;28.20;15.43;;;;;;;22.25;100.00;101270.75;5057297;28;20040;-77
2023/06/29 11:30:58;;;;;;;26.42;15.38;;;;;;;22.34;100.00;101271.78;5068507;28;20052;-75
2023/06/29 11:33:51;;;;;;;28.40;15.13;;;;;;;22.41;100.00;101269.38;5055497;28;20535;-76
2023/06/29 11:36:38;;;;;;;25.08;14.85;;;;;;;22.35;100.00;101271.63;5054119;28;20135;-75
2023/06/29 11:39:24;;;;;;;27.27;15.20;;;;;;;22.34;100.00;101275.31;5069859;28;20559;-76
2023/06/29 11:42:09;;;;;;;28.85;15.73;;;;;;;22.29;100.00;101276.72;5071277;28;20043;-76
2023/06/29 11:45:04;;;;;;;25.27;15.32;;;;;;;22.26;100.00;101272.44;5055653;28;20550;-76
2023/06/29 11:47:54;;;;;;;31.20;16.88;;;;;;;22.31;100.00;101270.22;5071332;28;20052;-75
2023/06/29 11:50:40;;;;;;;26.50;16.70;;;;;;;22.36;100.00;101270.66;5054769;28;20040;-77
2023/06/29 11:53:26;;;;;;;29.67;17.98;;;;;;;22.46;100.00;101267.13;5072446;28;20039;-76
2023/06/29 11:56:24;;;;;;;32.28;17.75;;;;;;;22.60;100.00;101264.06;5055110;28;21923;-74
2023/06/29 11:59:16;;;;;;;31.60;17.75;;;;;;;22.76;100.00;101254.56;5055766;28;20041;-76
2023/06/29 12:02:04;;;;;;;34.40;17.83;;;;;;;22.85;100.00;101256.44;5069328;28;20167;-76
2023/06/29 12:04:59;;;;;;;29.08;16.70;;;;;;;22.82;100.00;101256.69;5070121;28;21240;-76
2023/06/29 12:07:46;;;;;;;29.13;16.90;;;;;;;22.67;100.00;101250.88;5056146;28;20028;-77
2023/06/29 12:10:36;;;;;;;34.42;18.83;;;;;;;22.52;100.00;101255.81;5067348;28;20032;-76
2023/06/29 12:13:23;;;;;;;32.65;18.88;;;;;;;22.29;100.00;101253.31;5040470;28;20435;-77
2023/06/29 12:16:09;;;;;;;35.20;20.20;;;;;;;22.08;100.00;101251.53;5068551;28;20036;-76
2023/06/29 12:18:55;;;;;;;36.10;20.33;;;;;;;21.98;100.00;101250.63;5053740;28;20038;-76
2023/06/29 12:21:41;;;;;;;34.72;19.92;;;;;;;21.91;100.00;101247.63;5069391;28;20082;-76
2023/06/29 12:24:26;;;;;;;36.17;20.00;;;;;;;21.88;100.00;101242.50;5056841;28;20047;-75
2023/06/29 12:27:12;;;;;;;38.00;21.13;;;;;;;21.82;100.00;101254.69;5070380;28;20040;-75
2023/06/29 12:29:58;;;;;;;35.28;20.15;;;;;;;21.82;100.00;101259.19;5070701;28;20584;-73